sensor_id;sensor_type;location;lat;lon;timestamp;temperature;humidity
8152;DHT22;4117;53.622;9.958;2023-04-15T00:00:18;7.70;1.00
8152;DHT22;4117;53.622;9.958;2023-04-15T00:02:45;7.60;1.00
8152;DHT22;4117;53.622;9.958;2023-04-15T00:05:12;7.60;1.00
8152;DHT22;4117;53.622;9.958;2023-04-15T00:07:39;7.60;1.00
8152;DHT22;4117;53.622;9.958;2023-04-15T00:10:07;7.70;1.00
8152;DHT22;4117;53.622;9.958;2023-04-15T00:12:34;7.70;1.00
8152;DHT22;4117;53.622;9.958;2023-04-15T00:15:03;7.60;1.00
8152;DHT22;4117;53.622;9.958;2023-04-15T00:17:31;7.60;1.00
8152;DHT22;4117;53.622;9.958;2023-04-15T00:19:58;7.60;1.00
8152;DHT22;4117;53.622;9.958;2023-04-15T00:22:26;7.60;1.00
8152;DHT22;4117;53.622;9.958;2023-04-15T00:24:53;7.60;1.00
8152;DHT22;4117;53.622;9.958;2023-04-15T00:27:20;7.60;1.00
8152;DHT22;4117;53.622;9.958;2023-04-15T00:29:47;7.60;1.00
8152;DHT22;4117;53.622;9.958;2023-04-15T00:32:16;7.60;1.00
8152;DHT22;4117;53.622;9.958;2023-04-15T00:34:42;7.50;1.00
8152;DHT22;4117;53.622;9.958;2023-04-15T00:37:10;7.60;1.00
8152;DHT22;4117;53.622;9.958;2023-04-15T00:39:37;7.60;1.00
8152;DHT22;4117;53.622;9.958;2023-04-15T00:42:04;7.60;1.00
8152;DHT22;4117;53.622;9.958;2023-04-15T00:44:31;7.60;1.00
8152;DHT22;4117;53.622;9.958;2023-04-15T00:46:59;7.60;1.00
8152;DHT22;4117;53.622;9.958;2023-04-15T00:49:28;7.60;1.00
8152;DHT22;4117;53.622;9.958;2023-04-15T00:51:56;7.50;1.00
8152;DHT22;4117;53.622;9.958;2023-04-15T00:54:23;7.60;1.00
8152;DHT22;4117;53.622;9.958;2023-04-15T00:56:51;7.50;1.00
8152;DHT22;4117;53.622;9.958;2023-04-15T00:59:19;7.50;1.00
8152;DHT22;4117;53.622;9.958;2023-04-15T01:01:47;7.50;1.00
8152;DHT22;4117;53.622;9.958;2023-04-15T01:04:15;7.50;1.00
8152;DHT22;4117;53.622;9.958;2023-04-15T01:06:43;7.50;1.00
8152;DHT22;4117;53.622;9.958;2023-04-15T01:09:11;7.50;1.00
8152;DHT22;4117;53.622;9.958;2023-04-15T01:11:38;7.60;1.00
8152;DHT22;4117;53.622;9.958;2023-04-15T01:14:05;7.60;1.00
8152;DHT22;4117;53.622;9.958;2023-04-15T01:16:33;7.60;1.00
8152;DHT22;4117;53.622;9.958;2023-04-15T01:19:01;7.50;1.00
8152;DHT22;4117;53.622;9.958;2023-04-15T01:21:28;7.50;1.00
8152;DHT22;4117;53.622;9.958;2023-04-15T01:23:56;7.50;1.00
8152;DHT22;4117;53.622;9.958;2023-04-15T01:26:26;7.50;1.00
8152;DHT22;4117;53.622;9.958;2023-04-15T01:28:53;7.50;1.00
8152;DHT22;4117;53.622;9.958;2023-04-15T01:31:20;7.50;1.00
8152;DHT22;4117;53.622;9.958;2023-04-15T01:33:47;7.50;1.00
8152;DHT22;4117;53.622;9.958;2023-04-15T01:36:14;7.50;1.00
8152;DHT22;4117;53.622;9.958;2023-04-15T01:38:41;7.50;3.70
8152;DHT22;4117;53.622;9.958;2023-04-15T01:41:08;7.50;4.40
8152;DHT22;4117;53.622;9.958;2023-04-15T01:43:37;7.50;4.40
8152;DHT22;4117;53.622;9.958;2023-04-15T01:46:04;7.50;6.50
8152;DHT22;4117;53.622;9.958;2023-04-15T01:48:31;7.50;9.90
8152;DHT22;4117;53.622;9.958;2023-04-15T01:50:59;7.50;12.00
8152;DHT22;4117;53.622;9.958;2023-04-15T01:53:26;7.50;12.40
8152;DHT22;4117;53.622;9.958;2023-04-15T01:55:53;7.50;14.90
8152;DHT22;4117;53.622;9.958;2023-04-15T01:58:20;7.50;15.10
8152;DHT22;4117;53.622;9.958;2023-04-15T02:00:48;7.50;15.10
8152;DHT22;4117;53.622;9.958;2023-04-15T02:03:16;7.50;15.10
8152;DHT22;4117;53.622;9.958;2023-04-15T02:05:43;7.50;15.10
8152;DHT22;4117;53.622;9.958;2023-04-15T02:08:10;7.50;15.10
8152;DHT22;4117;53.622;9.958;2023-04-15T02:10:37;7.50;15.20
8152;DHT22;4117;53.622;9.958;2023-04-15T02:13:04;7.50;15.40
8152;DHT22;4117;53.622;9.958;2023-04-15T02:15:31;7.50;16.70
8152;DHT22;4117;53.622;9.958;2023-04-15T02:18:00;7.40;17.50
8152;DHT22;4117;53.622;9.958;2023-04-15T02:20:27;7.40;20.30
8152;DHT22;4117;53.622;9.958;2023-04-15T02:22:55;7.40;20.60
8152;DHT22;4117;53.622;9.958;2023-04-15T02:25:22;7.40;21.30
8152;DHT22;4117;53.622;9.958;2023-04-15T02:27:49;7.40;24.30
8152;DHT22;4117;53.622;9.958;2023-04-15T02:30:16;7.40;25.10
8152;DHT22;4117;53.622;9.958;2023-04-15T02:32:43;7.50;25.40
8152;DHT22;4117;53.622;9.958;2023-04-15T02:35:11;7.40;25.60
8152;DHT22;4117;53.622;9.958;2023-04-15T02:37:38;7.40;25.50
8152;DHT22;4117;53.622;9.958;2023-04-15T02:40:08;7.50;28.10
8152;DHT22;4117;53.622;9.958;2023-04-15T02:42:37;7.50;25.70
8152;DHT22;4117;53.622;9.958;2023-04-15T02:45:05;7.50;28.00
8152;DHT22;4117;53.622;9.958;2023-04-15T02:47:32;7.50;27.20
8152;DHT22;4117;53.622;9.958;2023-04-15T02:50:01;7.50;28.70
8152;DHT22;4117;53.622;9.958;2023-04-15T02:52:29;7.50;31.20
8152;DHT22;4117;53.622;9.958;2023-04-15T02:54:57;7.50;30.10
8152;DHT22;4117;53.622;9.958;2023-04-15T02:57:25;7.40;30.40
8152;DHT22;4117;53.622;9.958;2023-04-15T02:59:53;7.50;35.50
8152;DHT22;4117;53.622;9.958;2023-04-15T03:02:20;7.40;36.70
8152;DHT22;4117;53.622;9.958;2023-04-15T03:04:47;7.40;36.80
8152;DHT22;4117;53.622;9.958;2023-04-15T03:07:14;7.40;40.90
8152;DHT22;4117;53.622;9.958;2023-04-15T03:09:42;7.50;41.50
8152;DHT22;4117;53.622;9.958;2023-04-15T03:12:09;7.50;46.70
8152;DHT22;4117;53.622;9.958;2023-04-15T03:14:36;7.50;47.10
8152;DHT22;4117;53.622;9.958;2023-04-15T03:17:03;7.40;48.40
8152;DHT22;4117;53.622;9.958;2023-04-15T03:19:30;7.40;49.40
8152;DHT22;4117;53.622;9.958;2023-04-15T03:21:57;7.40;54.20
8152;DHT22;4117;53.622;9.958;2023-04-15T03:24:25;7.40;58.80
8152;DHT22;4117;53.622;9.958;2023-04-15T03:26:55;7.50;60.90
8152;DHT22;4117;53.622;9.958;2023-04-15T03:29:22;7.40;62.40
8152;DHT22;4117;53.622;9.958;2023-04-15T03:31:49;7.40;62.30
8152;DHT22;4117;53.622;9.958;2023-04-15T03:34:16;7.40;63.50
8152;DHT22;4117;53.622;9.958;2023-04-15T03:36:43;7.50;68.30
8152;DHT22;4117;53.622;9.958;2023-04-15T03:39:10;7.50;69.70
8152;DHT22;4117;53.622;9.958;2023-04-15T03:41:37;7.50;68.00
8152;DHT22;4117;53.622;9.958;2023-04-15T03:44:06;7.50;69.40
8152;DHT22;4117;53.622;9.958;2023-04-15T03:46:33;7.50;73.40
8152;DHT22;4117;53.622;9.958;2023-04-15T03:49:00;7.50;74.90
8152;DHT22;4117;53.622;9.958;2023-04-15T03:51:27;7.40;75.00
8152;DHT22;4117;53.622;9.958;2023-04-15T03:53:54;7.40;86.90
8152;DHT22;4117;53.622;9.958;2023-04-15T03:56:21;7.50;87.50
8152;DHT22;4117;53.622;9.958;2023-04-15T03:58:48;7.50;92.50
8152;DHT22;4117;53.622;9.958;2023-04-15T04:01:17;7.50;93.60
8152;DHT22;4117;53.622;9.958;2023-04-15T04:03:44;7.50;93.70
8152;DHT22;4117;53.622;9.958;2023-04-15T04:06:11;7.40;94.20
8152;DHT22;4117;53.622;9.958;2023-04-15T04:08:38;7.50;96.20
8152;DHT22;4117;53.622;9.958;2023-04-15T04:11:05;7.50;94.80
8152;DHT22;4117;53.622;9.958;2023-04-15T04:13:32;7.50;98.60
8152;DHT22;4117;53.622;9.958;2023-04-15T04:15:59;7.50;96.90
8152;DHT22;4117;53.622;9.958;2023-04-15T04:18:27;7.50;99.50
8152;DHT22;4117;53.622;9.958;2023-04-15T04:20:54;7.50;99.60
8152;DHT22;4117;53.622;9.958;2023-04-15T04:23:21;7.50;97.40
8152;DHT22;4117;53.622;9.958;2023-04-15T04:25:48;7.50;98.70
8152;DHT22;4117;53.622;9.958;2023-04-15T04:28:15;7.50;98.70
8152;DHT22;4117;53.622;9.958;2023-04-15T04:30:42;7.50;99.40
8152;DHT22;4117;53.622;9.958;2023-04-15T04:33:10;7.50;99.60
8152;DHT22;4117;53.622;9.958;2023-04-15T04:35:38;7.50;99.60
8152;DHT22;4117;53.622;9.958;2023-04-15T04:38:05;7.50;99.90
8152;DHT22;4117;53.622;9.958;2023-04-15T04:40:32;7.60;99.90
8152;DHT22;4117;53.622;9.958;2023-04-15T04:42:59;7.60;99.90
8152;DHT22;4117;53.622;9.958;2023-04-15T04:45:26;7.60;99.90
8152;DHT22;4117;53.622;9.958;2023-04-15T04:47:53;7.60;99.90
8152;DHT22;4117;53.622;9.958;2023-04-15T04:50:20;7.60;99.90
8152;DHT22;4117;53.622;9.958;2023-04-15T04:52:48;7.60;99.90
8152;DHT22;4117;53.622;9.958;2023-04-15T04:55:15;7.60;99.90
8152;DHT22;4117;53.622;9.958;2023-04-15T04:57:42;7.60;99.90
8152;DHT22;4117;53.622;9.958;2023-04-15T05:00:10;7.60;99.90
8152;DHT22;4117;53.622;9.958;2023-04-15T05:02:37;7.50;99.90
8152;DHT22;4117;53.622;9.958;2023-04-15T05:05:06;7.60;99.90
8152;DHT22;4117;53.622;9.958;2023-04-15T05:07:34;7.60;99.90
8152;DHT22;4117;53.622;9.958;2023-04-15T05:10:03;7.60;99.90
8152;DHT22;4117;53.622;9.958;2023-04-15T05:12:30;7.60;99.90
8152;DHT22;4117;53.622;9.958;2023-04-15T05:14:57;7.60;99.90
8152;DHT22;4117;53.622;9.958;2023-04-15T05:17:24;7.60;99.90
8152;DHT22;4117;53.622;9.958;2023-04-15T05:19:51;7.60;99.90
8152;DHT22;4117;53.622;9.958;2023-04-15T05:22:19;7.60;99.90
8152;DHT22;4117;53.622;9.958;2023-04-15T05:24:46;7.60;99.90
8152;DHT22;4117;53.622;9.958;2023-04-15T05:27:14;7.70;99.90
8152;DHT22;4117;53.622;9.958;2023-04-15T05:29:41;7.70;99.90
8152;DHT22;4117;53.622;9.958;2023-04-15T05:32:08;7.70;99.90
8152;DHT22;4117;53.622;9.958;2023-04-15T05:34:35;7.70;99.90
8152;DHT22;4117;53.622;9.958;2023-04-15T05:37:02;7.70;99.90
8152;DHT22;4117;53.622;9.958;2023-04-15T05:39:29;7.70;99.90
8152;DHT22;4117;53.622;9.958;2023-04-15T05:41:57;7.70;99.90
8152;DHT22;4117;53.622;9.958;2023-04-15T05:44:25;7.70;99.90
8152;DHT22;4117;53.622;9.958;2023-04-15T05:46:52;7.70;99.90
8152;DHT22;4117;53.622;9.958;2023-04-15T05:49:19;7.70;99.90
8152;DHT22;4117;53.622;9.958;2023-04-15T05:51:46;7.70;99.90
8152;DHT22;4117;53.622;9.958;2023-04-15T05:54:13;7.80;99.90
8152;DHT22;4117;53.622;9.958;2023-04-15T05:56:40;7.80;99.90
8152;DHT22;4117;53.622;9.958;2023-04-15T05:59:07;7.70;99.90
8152;DHT22;4117;53.622;9.958;2023-04-15T06:01:35;7.80;99.90
8152;DHT22;4117;53.622;9.958;2023-04-15T06:04:03;7.80;99.90
8152;DHT22;4117;53.622;9.958;2023-04-15T06:06:29;7.80;99.90
8152;DHT22;4117;53.622;9.958;2023-04-15T06:08:57;7.80;99.90
8152;DHT22;4117;53.622;9.958;2023-04-15T06:11:24;7.80;99.90
8152;DHT22;4117;53.622;9.958;2023-04-15T06:13:51;7.80;99.90
8152;DHT22;4117;53.622;9.958;2023-04-15T06:16:18;7.80;99.90
8152;DHT22;4117;53.622;9.958;2023-04-15T06:18:47;7.80;99.90
8152;DHT22;4117;53.622;9.958;2023-04-15T06:21:14;7.80;99.90
8152;DHT22;4117;53.622;9.958;2023-04-15T06:23:41;7.80;99.90
8152;DHT22;4117;53.622;9.958;2023-04-15T06:26:08;7.80;99.90
8152;DHT22;4117;53.622;9.958;2023-04-15T06:28:35;7.90;99.90
8152;DHT22;4117;53.622;9.958;2023-04-15T06:31:02;7.90;99.90
8152;DHT22;4117;53.622;9.958;2023-04-15T06:33:30;7.90;99.90
8152;DHT22;4117;53.622;9.958;2023-04-15T06:35:59;7.90;99.90
8152;DHT22;4117;53.622;9.958;2023-04-15T06:38:25;7.90;99.90
8152;DHT22;4117;53.622;9.958;2023-04-15T06:40:52;7.90;99.90
8152;DHT22;4117;53.622;9.958;2023-04-15T06:43:20;7.90;99.90
8152;DHT22;4117;53.622;9.958;2023-04-15T06:45:46;7.90;99.90
8152;DHT22;4117;53.622;9.958;2023-04-15T06:48:13;8.00;99.90
8152;DHT22;4117;53.622;9.958;2023-04-15T06:50:41;8.00;99.90
8152;DHT22;4117;53.622;9.958;2023-04-15T06:53:09;8.00;99.90
8152;DHT22;4117;53.622;9.958;2023-04-15T06:55:36;8.00;99.90
8152;DHT22;4117;53.622;9.958;2023-04-15T06:58:04;8.00;99.90
8152;DHT22;4117;53.622;9.958;2023-04-15T07:00:31;8.00;99.90
8152;DHT22;4117;53.622;9.958;2023-04-15T07:02:59;8.00;99.90
8152;DHT22;4117;53.622;9.958;2023-04-15T07:05:28;8.00;99.90
8152;DHT22;4117;53.622;9.958;2023-04-15T07:07:55;8.10;99.90
8152;DHT22;4117;53.622;9.958;2023-04-15T07:10:24;8.10;99.90
8152;DHT22;4117;53.622;9.958;2023-04-15T07:12:51;8.10;99.90
8152;DHT22;4117;53.622;9.958;2023-04-15T07:15:18;8.10;99.90
8152;DHT22;4117;53.622;9.958;2023-04-15T07:17:45;8.10;99.90
8152;DHT22;4117;53.622;9.958;2023-04-15T07:20:12;8.20;99.90
8152;DHT22;4117;53.622;9.958;2023-04-15T07:22:39;8.10;99.90
8152;DHT22;4117;53.622;9.958;2023-04-15T07:25:07;8.10;99.90
8152;DHT22;4117;53.622;9.958;2023-04-15T07:27:35;8.20;99.90
8152;DHT22;4117;53.622;9.958;2023-04-15T07:30:02;8.20;99.90
8152;DHT22;4117;53.622;9.958;2023-04-15T07:32:29;8.20;99.90
8152;DHT22;4117;53.622;9.958;2023-04-15T07:34:56;8.20;99.90
8152;DHT22;4117;53.622;9.958;2023-04-15T07:37:23;8.20;99.90
8152;DHT22;4117;53.622;9.958;2023-04-15T07:39:50;8.20;99.90
8152;DHT22;4117;53.622;9.958;2023-04-15T07:42:18;8.20;99.90
8152;DHT22;4117;53.622;9.958;2023-04-15T07:44:46;8.20;99.90
8152;DHT22;4117;53.622;9.958;2023-04-15T07:47:13;8.30;99.90
8152;DHT22;4117;53.622;9.958;2023-04-15T07:49:40;8.30;99.90
8152;DHT22;4117;53.622;9.958;2023-04-15T07:52:09;8.30;99.90
8152;DHT22;4117;53.622;9.958;2023-04-15T07:54:36;8.30;99.90
8152;DHT22;4117;53.622;9.958;2023-04-15T07:57:02;8.30;99.90
8152;DHT22;4117;53.622;9.958;2023-04-15T07:59:29;8.30;99.90
8152;DHT22;4117;53.622;9.958;2023-04-15T08:01:59;8.30;99.90
8152;DHT22;4117;53.622;9.958;2023-04-15T08:04:26;8.30;99.90
8152;DHT22;4117;53.622;9.958;2023-04-15T08:06:53;8.40;99.90
8152;DHT22;4117;53.622;9.958;2023-04-15T08:09:20;8.40;99.90
8152;DHT22;4117;53.622;9.958;2023-04-15T08:11:48;8.40;99.90
8152;DHT22;4117;53.622;9.958;2023-04-15T08:14:15;8.40;99.90
8152;DHT22;4117;53.622;9.958;2023-04-15T08:16:42;8.40;99.90
8152;DHT22;4117;53.622;9.958;2023-04-15T08:19:11;8.50;99.90
8152;DHT22;4117;53.622;9.958;2023-04-15T08:21:38;8.50;99.90
8152;DHT22;4117;53.622;9.958;2023-04-15T08:24:06;8.50;99.90
8152;DHT22;4117;53.622;9.958;2023-04-15T08:26:33;8.50;99.90
8152;DHT22;4117;53.622;9.958;2023-04-15T08:29:00;8.50;99.90
8152;DHT22;4117;53.622;9.958;2023-04-15T08:31:28;8.50;99.90
8152;DHT22;4117;53.622;9.958;2023-04-15T08:33:56;8.50;99.90
8152;DHT22;4117;53.622;9.958;2023-04-15T08:36:25;8.60;99.90
8152;DHT22;4117;53.622;9.958;2023-04-15T08:38:53;8.60;99.90
8152;DHT22;4117;53.622;9.958;2023-04-15T08:41:21;8.60;99.90
8152;DHT22;4117;53.622;9.958;2023-04-15T08:43:52;8.70;99.90
8152;DHT22;4117;53.622;9.958;2023-04-15T08:46:20;8.70;99.90
8152;DHT22;4117;53.622;9.958;2023-04-15T08:48:48;8.70;99.90
8152;DHT22;4117;53.622;9.958;2023-04-15T08:51:15;8.70;99.90
8152;DHT22;4117;53.622;9.958;2023-04-15T08:53:45;8.70;99.90
8152;DHT22;4117;53.622;9.958;2023-04-15T08:56:14;8.70;99.90
8152;DHT22;4117;53.622;9.958;2023-04-15T08:58:42;8.80;99.90
8152;DHT22;4117;53.622;9.958;2023-04-15T09:01:10;8.80;99.90
8152;DHT22;4117;53.622;9.958;2023-04-15T09:03:38;8.70;99.90
8152;DHT22;4117;53.622;9.958;2023-04-15T09:06:05;8.70;99.90
8152;DHT22;4117;53.622;9.958;2023-04-15T09:08:34;8.70;99.90
8152;DHT22;4117;53.622;9.958;2023-04-15T09:11:03;8.80;99.90
8152;DHT22;4117;53.622;9.958;2023-04-15T09:13:30;8.80;99.90
8152;DHT22;4117;53.622;9.958;2023-04-15T09:15:57;8.90;99.90
8152;DHT22;4117;53.622;9.958;2023-04-15T09:18:28;8.90;99.90
8152;DHT22;4117;53.622;9.958;2023-04-15T09:20:55;9.00;99.90
8152;DHT22;4117;53.622;9.958;2023-04-15T09:23:23;9.00;99.90
8152;DHT22;4117;53.622;9.958;2023-04-15T09:25:50;9.00;99.90
8152;DHT22;4117;53.622;9.958;2023-04-15T09:28:24;9.00;99.90
8152;DHT22;4117;53.622;9.958;2023-04-15T09:30:55;9.10;99.90
8152;DHT22;4117;53.622;9.958;2023-04-15T09:33:22;9.10;99.90
8152;DHT22;4117;53.622;9.958;2023-04-15T09:35:58;9.10;99.90
8152;DHT22;4117;53.622;9.958;2023-04-15T09:38:25;9.20;99.90
8152;DHT22;4117;53.622;9.958;2023-04-15T09:40:53;9.30;99.90
8152;DHT22;4117;53.622;9.958;2023-04-15T09:43:20;9.30;99.90
8152;DHT22;4117;53.622;9.958;2023-04-15T09:45:50;9.40;99.90
8152;DHT22;4117;53.622;9.958;2023-04-15T09:48:19;9.50;99.90
8152;DHT22;4117;53.622;9.958;2023-04-15T09:50:47;9.50;99.90
8152;DHT22;4117;53.622;9.958;2023-04-15T09:53:18;9.50;99.90
8152;DHT22;4117;53.622;9.958;2023-04-15T09:55:49;9.60;99.90
8152;DHT22;4117;53.622;9.958;2023-04-15T09:58:20;9.70;99.90
8152;DHT22;4117;53.622;9.958;2023-04-15T10:00:49;9.80;99.90
8152;DHT22;4117;53.622;9.958;2023-04-15T10:03:19;9.90;99.90
8152;DHT22;4117;53.622;9.958;2023-04-15T10:05:48;10.00;99.90
8152;DHT22;4117;53.622;9.958;2023-04-15T10:08:17;10.10;99.90
8152;DHT22;4117;53.622;9.958;2023-04-15T10:10:45;10.20;99.90
8152;DHT22;4117;53.622;9.958;2023-04-15T10:13:13;10.30;99.90
8152;DHT22;4117;53.622;9.958;2023-04-15T10:15:44;10.40;99.90
8152;DHT22;4117;53.622;9.958;2023-04-15T10:18:15;10.50;99.90
8152;DHT22;4117;53.622;9.958;2023-04-15T10:20:43;10.60;99.90
8152;DHT22;4117;53.622;9.958;2023-04-15T10:23:11;10.70;99.90
8152;DHT22;4117;53.622;9.958;2023-04-15T10:25:39;10.90;99.90
8152;DHT22;4117;53.622;9.958;2023-04-15T10:28:06;11.00;98.00
8152;DHT22;4117;53.622;9.958;2023-04-15T10:30:35;11.10;82.50
8152;DHT22;4117;53.622;9.958;2023-04-15T10:33:03;11.20;82.00
8152;DHT22;4117;53.622;9.958;2023-04-15T10:35:32;11.20;76.50
8152;DHT22;4117;53.622;9.958;2023-04-15T10:37:59;11.20;68.80
8152;DHT22;4117;53.622;9.958;2023-04-15T10:40:27;11.30;70.20
8152;DHT22;4117;53.622;9.958;2023-04-15T10:42:56;11.30;63.50
8152;DHT22;4117;53.622;9.958;2023-04-15T10:45:25;11.40;63.60
8152;DHT22;4117;53.622;9.958;2023-04-15T10:47:55;11.50;63.70
8152;DHT22;4117;53.622;9.958;2023-04-15T10:50:25;11.60;51.20
8152;DHT22;4117;53.622;9.958;2023-04-15T10:52:54;11.70;45.30
8152;DHT22;4117;53.622;9.958;2023-04-15T10:55:23;11.70;45.90
8152;DHT22;4117;53.622;9.958;2023-04-15T10:57:52;11.70;39.20
8152;DHT22;4117;53.622;9.958;2023-04-15T11:00:24;11.80;36.10
8152;DHT22;4117;53.622;9.958;2023-04-15T11:02:53;11.80;39.30
8152;DHT22;4117;53.622;9.958;2023-04-15T11:05:21;11.90;31.60
8152;DHT22;4117;53.622;9.958;2023-04-15T11:07:53;12.00;31.00
8152;DHT22;4117;53.622;9.958;2023-04-15T11:10:50;12.10;17.30
8152;DHT22;4117;53.622;9.958;2023-04-15T11:13:22;12.10;17.30
8152;DHT22;4117;53.622;9.958;2023-04-15T11:15:58;12.20;8.30
8152;DHT22;4117;53.622;9.958;2023-04-15T11:18:28;12.30;6.80
8152;DHT22;4117;53.622;9.958;2023-04-15T11:20:58;12.30;6.70
8152;DHT22;4117;53.622;9.958;2023-04-15T11:23:35;12.30;1.00
8152;DHT22;4117;53.622;9.958;2023-04-15T11:26:04;12.30;1.00
8152;DHT22;4117;53.622;9.958;2023-04-15T11:28:35;12.30;1.00
8152;DHT22;4117;53.622;9.958;2023-04-15T11:31:06;12.30;1.00
8152;DHT22;4117;53.622;9.958;2023-04-15T11:33:35;12.30;1.00
8152;DHT22;4117;53.622;9.958;2023-04-15T11:36:03;12.30;1.00
8152;DHT22;4117;53.622;9.958;2023-04-15T11:38:30;12.30;1.00
8152;DHT22;4117;53.622;9.958;2023-04-15T11:40:58;12.30;1.00
8152;DHT22;4117;53.622;9.958;2023-04-15T11:43:25;12.30;1.00
8152;DHT22;4117;53.622;9.958;2023-04-15T11:45:54;12.20;1.00
8152;DHT22;4117;53.622;9.958;2023-04-15T11:48:22;12.10;1.00
8152;DHT22;4117;53.622;9.958;2023-04-15T11:50:54;12.10;1.00
8152;DHT22;4117;53.622;9.958;2023-04-15T11:53:21;12.10;1.00
8152;DHT22;4117;53.622;9.958;2023-04-15T11:55:49;12.10;1.00
8152;DHT22;4117;53.622;9.958;2023-04-15T11:58:20;12.10;1.00
8152;DHT22;4117;53.622;9.958;2023-04-15T12:00:50;12.20;1.00
8152;DHT22;4117;53.622;9.958;2023-04-15T12:03:22;12.30;1.00
8152;DHT22;4117;53.622;9.958;2023-04-15T12:06:05;12.40;1.00
8152;DHT22;4117;53.622;9.958;2023-04-15T12:08:51;12.40;1.00
8152;DHT22;4117;53.622;9.958;2023-04-15T12:11:19;12.40;1.00
8152;DHT22;4117;53.622;9.958;2023-04-15T12:13:48;12.40;1.00
8152;DHT22;4117;53.622;9.958;2023-04-15T12:16:16;12.20;1.00
8152;DHT22;4117;53.622;9.958;2023-04-15T12:18:45;12.10;1.00
8152;DHT22;4117;53.622;9.958;2023-04-15T12:21:13;12.20;1.00
8152;DHT22;4117;53.622;9.958;2023-04-15T12:23:47;12.20;1.00
8152;DHT22;4117;53.622;9.958;2023-04-15T12:26:15;12.20;1.00
8152;DHT22;4117;53.622;9.958;2023-04-15T12:28:42;12.20;1.00
8152;DHT22;4117;53.622;9.958;2023-04-15T12:31:11;12.10;1.00
8152;DHT22;4117;53.622;9.958;2023-04-15T12:33:40;12.10;1.00
8152;DHT22;4117;53.622;9.958;2023-04-15T12:36:06;12.10;1.00
8152;DHT22;4117;53.622;9.958;2023-04-15T12:38:33;12.10;1.00
8152;DHT22;4117;53.622;9.958;2023-04-15T12:41:01;12.10;1.00
8152;DHT22;4117;53.622;9.958;2023-04-15T12:43:28;12.10;1.00
8152;DHT22;4117;53.622;9.958;2023-04-15T12:45:55;12.10;1.00
8152;DHT22;4117;53.622;9.958;2023-04-15T12:48:23;12.10;1.00
8152;DHT22;4117;53.622;9.958;2023-04-15T12:50:50;12.10;1.00
8152;DHT22;4117;53.622;9.958;2023-04-15T12:53:17;12.20;1.00
8152;DHT22;4117;53.622;9.958;2023-04-15T12:55:44;12.30;1.00
8152;DHT22;4117;53.622;9.958;2023-04-15T12:58:11;12.40;1.00
8152;DHT22;4117;53.622;9.958;2023-04-15T13:00:38;12.40;1.00
8152;DHT22;4117;53.622;9.958;2023-04-15T13:03:05;12.50;1.00
8152;DHT22;4117;53.622;9.958;2023-04-15T13:05:33;12.50;1.00
8152;DHT22;4117;53.622;9.958;2023-04-15T13:08:01;12.60;1.00
8152;DHT22;4117;53.622;9.958;2023-04-15T13:10:28;12.60;1.00
8152;DHT22;4117;53.622;9.958;2023-04-15T13:12:56;12.70;1.00
8152;DHT22;4117;53.622;9.958;2023-04-15T13:15:23;12.80;1.00
8152;DHT22;4117;53.622;9.958;2023-04-15T13:17:50;12.80;1.00
8152;DHT22;4117;53.622;9.958;2023-04-15T13:20:18;12.80;1.00
8152;DHT22;4117;53.622;9.958;2023-04-15T13:22:46;12.80;1.00
8152;DHT22;4117;53.622;9.958;2023-04-15T13:25:13;12.80;1.00
8152;DHT22;4117;53.622;9.958;2023-04-15T13:27:41;12.80;1.00
8152;DHT22;4117;53.622;9.958;2023-04-15T13:30:08;12.90;1.00
8152;DHT22;4117;53.622;9.958;2023-04-15T13:32:36;12.90;1.00
8152;DHT22;4117;53.622;9.958;2023-04-15T13:35:03;13.00;1.00
8152;DHT22;4117;53.622;9.958;2023-04-15T13:37:30;13.00;1.00
8152;DHT22;4117;53.622;9.958;2023-04-15T13:39:59;12.90;1.00
8152;DHT22;4117;53.622;9.958;2023-04-15T13:42:26;12.90;1.00
8152;DHT22;4117;53.622;9.958;2023-04-15T13:44:55;12.90;1.00
8152;DHT22;4117;53.622;9.958;2023-04-15T13:47:22;13.00;1.00
8152;DHT22;4117;53.622;9.958;2023-04-15T13:49:50;13.00;1.00
8152;DHT22;4117;53.622;9.958;2023-04-15T13:52:18;13.00;1.00
8152;DHT22;4117;53.622;9.958;2023-04-15T13:54:45;13.00;1.00
8152;DHT22;4117;53.622;9.958;2023-04-15T13:57:14;13.00;1.00
8152;DHT22;4117;53.622;9.958;2023-04-15T13:59:41;13.10;1.00
8152;DHT22;4117;53.622;9.958;2023-04-15T14:02:09;13.20;1.00
8152;DHT22;4117;53.622;9.958;2023-04-15T14:04:36;13.20;1.00
8152;DHT22;4117;53.622;9.958;2023-04-15T14:07:03;13.20;1.00
8152;DHT22;4117;53.622;9.958;2023-04-15T14:09:31;13.10;1.00
8152;DHT22;4117;53.622;9.958;2023-04-15T14:11:57;13.10;1.00
8152;DHT22;4117;53.622;9.958;2023-04-15T14:14:27;13.20;1.00
8152;DHT22;4117;53.622;9.958;2023-04-15T14:16:54;13.30;1.00
8152;DHT22;4117;53.622;9.958;2023-04-15T14:19:22;13.30;1.00
8152;DHT22;4117;53.622;9.958;2023-04-15T14:21:49;13.30;1.00
8152;DHT22;4117;53.622;9.958;2023-04-15T14:24:16;13.30;1.00
8152;DHT22;4117;53.622;9.958;2023-04-15T14:26:43;13.30;1.00
8152;DHT22;4117;53.622;9.958;2023-04-15T14:29:10;13.20;1.00
8152;DHT22;4117;53.622;9.958;2023-04-15T14:31:39;13.30;1.00
8152;DHT22;4117;53.622;9.958;2023-04-15T14:34:05;13.20;1.00
8152;DHT22;4117;53.622;9.958;2023-04-15T14:36:33;13.10;1.00
8152;DHT22;4117;53.622;9.958;2023-04-15T14:39:00;13.10;1.00
8152;DHT22;4117;53.622;9.958;2023-04-15T14:41:27;13.10;1.00
8152;DHT22;4117;53.622;9.958;2023-04-15T14:43:54;13.10;1.00
8152;DHT22;4117;53.622;9.958;2023-04-15T14:46:21;13.10;1.00
8152;DHT22;4117;53.622;9.958;2023-04-15T14:48:49;13.10;1.00
8152;DHT22;4117;53.622;9.958;2023-04-15T14:51:17;13.10;1.00
8152;DHT22;4117;53.622;9.958;2023-04-15T14:53:44;13.10;1.00
8152;DHT22;4117;53.622;9.958;2023-04-15T14:56:11;13.00;1.00
8152;DHT22;4117;53.622;9.958;2023-04-15T14:58:38;13.00;1.00
8152;DHT22;4117;53.622;9.958;2023-04-15T15:01:05;13.00;1.00
8152;DHT22;4117;53.622;9.958;2023-04-15T15:03:35;13.10;1.00
8152;DHT22;4117;53.622;9.958;2023-04-15T15:06:04;13.10;1.00
8152;DHT22;4117;53.622;9.958;2023-04-15T15:08:31;13.00;1.00
8152;DHT22;4117;53.622;9.958;2023-04-15T15:10:59;13.00;1.00
8152;DHT22;4117;53.622;9.958;2023-04-15T15:13:26;13.00;1.00
8152;DHT22;4117;53.622;9.958;2023-04-15T15:15:53;13.00;1.00
8152;DHT22;4117;53.622;9.958;2023-04-15T15:18:20;13.00;1.00
8152;DHT22;4117;53.622;9.958;2023-04-15T15:20:47;13.00;1.00
8152;DHT22;4117;53.622;9.958;2023-04-15T15:23:16;13.00;1.00
8152;DHT22;4117;53.622;9.958;2023-04-15T15:25:44;13.00;1.00
8152;DHT22;4117;53.622;9.958;2023-04-15T15:28:11;13.00;1.00
8152;DHT22;4117;53.622;9.958;2023-04-15T15:30:38;13.10;1.00
8152;DHT22;4117;53.622;9.958;2023-04-15T15:33:05;13.10;1.00
8152;DHT22;4117;53.622;9.958;2023-04-15T15:35:33;13.10;1.00
8152;DHT22;4117;53.622;9.958;2023-04-15T15:38:00;13.00;1.00
8152;DHT22;4117;53.622;9.958;2023-04-15T15:40:29;13.00;1.00
8152;DHT22;4117;53.622;9.958;2023-04-15T15:42:56;12.90;1.00
8152;DHT22;4117;53.622;9.958;2023-04-15T15:45:23;12.90;1.00
8152;DHT22;4117;53.622;9.958;2023-04-15T15:47:52;12.90;1.00
8152;DHT22;4117;53.622;9.958;2023-04-15T15:50:21;12.90;1.00
8152;DHT22;4117;53.622;9.958;2023-04-15T15:52:48;12.80;1.00
8152;DHT22;4117;53.622;9.958;2023-04-15T15:55:16;12.80;1.00
8152;DHT22;4117;53.622;9.958;2023-04-15T15:57:48;12.70;1.00
8152;DHT22;4117;53.622;9.958;2023-04-15T16:00:16;12.70;1.00
8152;DHT22;4117;53.622;9.958;2023-04-15T16:02:43;12.70;1.00
8152;DHT22;4117;53.622;9.958;2023-04-15T16:05:10;12.70;1.00
8152;DHT22;4117;53.622;9.958;2023-04-15T16:07:37;12.70;1.00
8152;DHT22;4117;53.622;9.958;2023-04-15T16:10:07;12.60;1.00
8152;DHT22;4117;53.622;9.958;2023-04-15T16:12:34;12.60;1.00
8152;DHT22;4117;53.622;9.958;2023-04-15T16:15:03;12.50;1.00
8152;DHT22;4117;53.622;9.958;2023-04-15T16:17:30;12.40;1.00
8152;DHT22;4117;53.622;9.958;2023-04-15T16:19:58;12.40;1.00
8152;DHT22;4117;53.622;9.958;2023-04-15T16:22:30;12.30;1.00